AEL190A LYBE-UKLI
Flight info
| Callsign | AEL190A |
|---|---|
| Flight time | 1h 21m |
| Altitude | 20000 |
| Route | TISAK M173 PARAK/N0461F390 DCT GEMTO/K0852F390 P26 TAKON |
| Aircraft | A343/H-SDE2E3FGHIJ4J5M1RWXY/LB1D1 |
Departure
| Time | 2026-05-01 10:49 |
|---|---|
| Airport | Belgrade Nikola Tesla Airport (LYBE) |
Arrival
| Time | 2026-05-01 12:10 |
|---|---|
| Airport | Ivano-Frankivsk International Airport (UKLI) |
| Time | Latitude | Longitude | Altitude | Speed | Heading |
|---|---|---|---|---|---|
| 2026-05-01 10:15 | 44.81912 | 20.29550 | 333 ft | 0 kts | 156° |
| 2026-05-01 10:30 | 44.81912 | 20.29549 | 333 ft | 2 kts | 156° |
| 2026-05-01 10:30 | 44.81949 | 20.29532 | 328 ft | 3 kts | 199° |
| 2026-05-01 10:31 | 44.81953 | 20.29533 | 333 ft | 0 kts | 211° |
| 2026-05-01 10:34 | 44.81950 | 20.29530 | 333 ft | 1 kts | 211° |
| 2026-05-01 10:34 | 44.81936 | 20.29518 | 329 ft | 3 kts | 211° |
| 2026-05-01 10:34 | 44.81912 | 20.29498 | 329 ft | 5 kts | 211° |
| 2026-05-01 10:35 | 44.81835 | 20.29432 | 330 ft | 8 kts | 212° |
| 2026-05-01 10:35 | 44.81783 | 20.29386 | 329 ft | 9 kts | 212° |
| 2026-05-01 10:35 | 44.81726 | 20.29326 | 329 ft | 11 kts | 220° |
| 2026-05-01 10:35 | 44.81681 | 20.29236 | 329 ft | 12 kts | 254° |
| 2026-05-01 10:36 | 44.81718 | 20.29196 | 329 ft | 3 kts | 27° |
| 2026-05-01 10:36 | 44.81742 | 20.29214 | 329 ft | 5 kts | 28° |
| 2026-05-01 10:36 | 44.81775 | 20.29239 | 329 ft | 6 kts | 28° |
| 2026-05-01 10:37 | 44.81814 | 20.29272 | 328 ft | 7 kts | 33° |
| 2026-05-01 10:37 | 44.81911 | 20.29360 | 328 ft | 9 kts | 32° |
| 2026-05-01 10:37 | 44.81969 | 20.29411 | 329 ft | 10 kts | 32° |
| 2026-05-01 10:38 | 44.82033 | 20.29467 | 329 ft | 11 kts | 32° |
| 2026-05-01 10:38 | 44.82102 | 20.29524 | 329 ft | 11 kts | 16° |
| 2026-05-01 10:38 | 44.82165 | 20.29475 | 332 ft | 11 kts | 309° |
| 2026-05-01 10:38 | 44.82210 | 20.29378 | 332 ft | 13 kts | 301° |
| 2026-05-01 10:39 | 44.82258 | 20.29268 | 328 ft | 14 kts | 302° |
| 2026-05-01 10:39 | 44.82313 | 20.29151 | 327 ft | 15 kts | 302° |
| 2026-05-01 10:39 | 44.82368 | 20.29022 | 329 ft | 16 kts | 301° |
| 2026-05-01 10:39 | 44.82432 | 20.28890 | 327 ft | 16 kts | 317° |
| 2026-05-01 10:40 | 44.82536 | 20.28880 | 327 ft | 15 kts | 28° |
| 2026-05-01 10:40 | 44.82547 | 20.28891 | 330 ft | 0 kts | 35° |
| 2026-05-01 10:46 | 44.82551 | 20.28895 | 325 ft | 1 kts | 35° |
| 2026-05-01 10:46 | 44.82563 | 20.28908 | 326 ft | 3 kts | 39° |
| 2026-05-01 10:46 | 44.82581 | 20.28932 | 327 ft | 4 kts | 44° |
| 2026-05-01 10:47 | 44.82601 | 20.28972 | 326 ft | 6 kts | 60° |
| 2026-05-01 10:47 | 44.82617 | 20.29032 | 327 ft | 7 kts | 72° |
| 2026-05-01 10:47 | 44.82629 | 20.29110 | 326 ft | 9 kts | 85° |
| 2026-05-01 10:47 | 44.82611 | 20.29191 | 326 ft | 9 kts | 120° |
| 2026-05-01 10:48 | 44.82602 | 20.29212 | 329 ft | 0 kts | 120° |
| 2026-05-01 10:48 | 44.82580 | 20.29266 | 326 ft | 31 kts | 121° |
| 2026-05-01 10:48 | 44.82344 | 20.29797 | 330 ft | 95 kts | 121° |
| 2026-05-01 10:48 | 44.81899 | 20.30806 | 332 ft | 145 kts | 122° |
| 2026-05-01 10:49 | 44.81271 | 20.32141 | 570 ft | 171 kts | 124° |
| 2026-05-01 10:49 | 44.80616 | 20.33599 | 960 ft | 191 kts | 118° |
| 2026-05-01 10:49 | 44.79861 | 20.35408 | 898 ft | 242 kts | 119° |
| 2026-05-01 10:49 | 44.78904 | 20.37655 | 895 ft | 290 kts | 120° |
| 2026-05-01 10:50 | 44.77791 | 20.40217 | 1243 ft | 320 kts | 120° |
| 2026-05-01 10:50 | 44.76649 | 20.42811 | 1882 ft | 292 kts | 120° |
| 2026-05-01 10:50 | 44.75654 | 20.45040 | 2591 ft | 245 kts | 121° |
| 2026-05-01 10:50 | 44.74777 | 20.46981 | 3342 ft | 235 kts | 121° |
| 2026-05-01 10:51 | 44.73894 | 20.48918 | 4350 ft | 236 kts | 121° |
| 2026-05-01 10:51 | 44.72995 | 20.50889 | 5280 ft | 244 kts | 121° |
| 2026-05-01 10:51 | 44.72071 | 20.52997 | 5837 ft | 267 kts | 117° |
| 2026-05-01 10:51 | 44.71540 | 20.55638 | 5977 ft | 299 kts | 90° |
| 2026-05-01 10:52 | 44.72024 | 20.58416 | 5986 ft | 294 kts | 59° |
| 2026-05-01 10:52 | 44.73502 | 20.60524 | 5971 ft | 308 kts | 30° |
| 2026-05-01 10:52 | 44.75482 | 20.61322 | 6003 ft | 289 kts | 0° |
| 2026-05-01 10:52 | 44.77369 | 20.60892 | 5992 ft | 263 kts | 350° |
| 2026-05-01 10:53 | 44.79194 | 20.60958 | 5998 ft | 264 kts | 8° |
| 2026-05-01 10:53 | 44.80992 | 20.61406 | 5990 ft | 262 kts | 12° |
| 2026-05-01 10:53 | 44.82773 | 20.61943 | 5990 ft | 261 kts | 13° |
| 2026-05-01 10:53 | 44.84544 | 20.62522 | 5994 ft | 261 kts | 13° |
| 2026-05-01 10:54 | 44.86312 | 20.63123 | 5989 ft | 261 kts | 14° |
| 2026-05-01 10:54 | 44.88095 | 20.63595 | 5988 ft | 262 kts | 5° |
| 2026-05-01 10:54 | 44.89922 | 20.63341 | 6028 ft | 261 kts | 343° |
| 2026-05-01 10:54 | 44.91562 | 20.62311 | 6384 ft | 264 kts | 333° |
| 2026-05-01 10:55 | 44.93202 | 20.61041 | 7166 ft | 267 kts | 332° |
| 2026-05-01 10:55 | 44.94809 | 20.59782 | 8168 ft | 267 kts | 333° |
| 2026-05-01 10:55 | 44.96441 | 20.58510 | 9148 ft | 269 kts | 334° |
| 2026-05-01 10:55 | 44.98109 | 20.57213 | 10139 ft | 272 kts | 335° |
| 2026-05-01 10:56 | 44.99755 | 20.55935 | 10965 ft | 275 kts | 335° |
| 2026-05-01 10:56 | 45.01444 | 20.54625 | 11747 ft | 279 kts | 335° |
| 2026-05-01 10:56 | 45.03177 | 20.53281 | 12561 ft | 283 kts | 335° |
| 2026-05-01 10:56 | 45.04915 | 20.51932 | 13352 ft | 287 kts | 335° |
| 2026-05-01 10:57 | 45.06650 | 20.50583 | 14117 ft | 290 kts | 335° |
| 2026-05-01 10:57 | 45.08429 | 20.49199 | 14808 ft | 294 kts | 335° |
| 2026-05-01 10:57 | 45.10231 | 20.47797 | 15506 ft | 296 kts | 335° |
| 2026-05-01 10:57 | 45.12042 | 20.46385 | 16199 ft | 299 kts | 335° |
| 2026-05-01 10:58 | 45.13871 | 20.44960 | 16895 ft | 301 kts | 335° |
| 2026-05-01 10:58 | 45.15715 | 20.43522 | 17561 ft | 304 kts | 335° |
| 2026-05-01 10:58 | 45.17575 | 20.42070 | 18250 ft | 306 kts | 335° |
| 2026-05-01 10:58 | 45.19450 | 20.40606 | 18878 ft | 309 kts | 335° |
| 2026-05-01 10:59 | 45.21342 | 20.39127 | 19460 ft | 312 kts | 335° |
| 2026-05-01 10:59 | 45.23255 | 20.37631 | 19993 ft | 316 kts | 335° |
| 2026-05-01 10:59 | 45.25189 | 20.36117 | 20282 ft | 318 kts | 335° |
| 2026-05-01 10:59 | 45.27127 | 20.34597 | 20326 ft | 318 kts | 335° |
| 2026-05-01 11:00 | 45.29066 | 20.33076 | 20329 ft | 319 kts | 335° |
| 2026-05-01 11:00 | 45.31009 | 20.31550 | 20331 ft | 319 kts | 335° |
| 2026-05-01 11:00 | 45.32953 | 20.30023 | 20330 ft | 319 kts | 335° |
| 2026-05-01 11:00 | 45.34899 | 20.28494 | 20327 ft | 319 kts | 335° |
| 2026-05-01 11:01 | 45.36841 | 20.26965 | 20327 ft | 319 kts | 336° |
| 2026-05-01 11:01 | 45.38785 | 20.25434 | 20329 ft | 319 kts | 336° |
| 2026-05-01 11:01 | 45.40724 | 20.23916 | 20331 ft | 318 kts | 336° |
| 2026-05-01 11:01 | 45.42756 | 20.22741 | 20335 ft | 313 kts | 349° |
| 2026-05-01 11:02 | 45.44931 | 20.22061 | 20327 ft | 329 kts | 354° |
| 2026-05-01 11:02 | 45.47234 | 20.21593 | 20307 ft | 337 kts | 357° |
| 2026-05-01 11:02 | 45.49570 | 20.21225 | 20322 ft | 338 kts | 358° |
| 2026-05-01 11:02 | 45.51909 | 20.20884 | 20327 ft | 337 kts | 358° |
| 2026-05-01 11:03 | 45.54239 | 20.20533 | 20329 ft | 337 kts | 358° |
| 2026-05-01 11:03 | 45.56570 | 20.20161 | 20331 ft | 337 kts | 357° |
| 2026-05-01 11:03 | 45.58896 | 20.19769 | 20330 ft | 337 kts | 358° |
| 2026-05-01 11:03 | 45.61220 | 20.19363 | 20335 ft | 336 kts | 357° |
| 2026-05-01 11:04 | 45.63535 | 20.18950 | 20329 ft | 335 kts | 357° |
| 2026-05-01 11:04 | 45.65851 | 20.18535 | 20329 ft | 335 kts | 357° |
| 2026-05-01 11:04 | 45.68169 | 20.18118 | 20333 ft | 335 kts | 357° |
| 2026-05-01 11:04 | 45.70480 | 20.17704 | 20332 ft | 335 kts | 357° |
| 2026-05-01 11:05 | 45.72794 | 20.17288 | 20331 ft | 335 kts | 357° |
| 2026-05-01 11:05 | 45.75112 | 20.16871 | 20334 ft | 335 kts | 357° |
| 2026-05-01 11:05 | 45.77426 | 20.16455 | 20335 ft | 335 kts | 357° |
| 2026-05-01 11:05 | 45.79742 | 20.16040 | 20331 ft | 335 kts | 358° |
| 2026-05-01 11:06 | 45.82049 | 20.15626 | 20329 ft | 334 kts | 358° |
| 2026-05-01 11:06 | 45.84355 | 20.15211 | 20332 ft | 334 kts | 358° |
| 2026-05-01 11:06 | 45.86659 | 20.14798 | 20338 ft | 334 kts | 358° |
| 2026-05-01 11:07 | 45.91263 | 20.13970 | 20341 ft | 334 kts | 358° |
| 2026-05-01 11:07 | 45.93569 | 20.13554 | 20326 ft | 333 kts | 358° |
| 2026-05-01 11:07 | 45.95867 | 20.13139 | 20341 ft | 333 kts | 358° |
| 2026-05-01 11:07 | 45.98164 | 20.12724 | 20340 ft | 333 kts | 358° |
| 2026-05-01 11:08 | 46.00459 | 20.12309 | 20337 ft | 332 kts | 358° |
| 2026-05-01 11:08 | 46.02750 | 20.11895 | 20339 ft | 332 kts | 359° |
| 2026-05-01 11:08 | 46.07328 | 20.11066 | 20339 ft | 331 kts | 359° |
| 2026-05-01 11:09 | 46.09612 | 20.10652 | 20339 ft | 331 kts | 359° |
| 2026-05-01 11:09 | 46.11898 | 20.10285 | 20338 ft | 329 kts | 2° |
| 2026-05-01 11:09 | 46.14168 | 20.10343 | 20460 ft | 326 kts | 11° |
| 2026-05-01 11:10 | 46.18539 | 20.12370 | 21094 ft | 337 kts | 33° |
| 2026-05-01 11:10 | 46.20482 | 20.14279 | 21709 ft | 338 kts | 38° |
| 2026-05-01 11:10 | 46.22336 | 20.16379 | 22365 ft | 339 kts | 40° |
| 2026-05-01 11:10 | 46.24139 | 20.18566 | 23049 ft | 339 kts | 41° |
| 2026-05-01 11:11 | 46.25926 | 20.20792 | 23641 ft | 341 kts | 42° |
| 2026-05-01 11:11 | 46.27727 | 20.23044 | 24181 ft | 343 kts | 42° |
| 2026-05-01 11:11 | 46.29538 | 20.25295 | 24661 ft | 344 kts | 42° |
| 2026-05-01 11:11 | 46.31366 | 20.27546 | 25150 ft | 346 kts | 41° |
| 2026-05-01 11:12 | 46.33201 | 20.29792 | 25626 ft | 347 kts | 41° |
| 2026-05-01 11:12 | 46.35050 | 20.32046 | 26114 ft | 348 kts | 41° |
| 2026-05-01 11:12 | 46.36906 | 20.34307 | 26588 ft | 349 kts | 41° |
| 2026-05-01 11:12 | 46.38764 | 20.36570 | 27035 ft | 350 kts | 41° |
| 2026-05-01 11:13 | 46.40632 | 20.38848 | 27513 ft | 351 kts | 41° |
| 2026-05-01 11:13 | 46.42496 | 20.41125 | 27963 ft | 352 kts | 42° |
| 2026-05-01 11:13 | 46.44371 | 20.43418 | 28389 ft | 353 kts | 42° |
| 2026-05-01 11:13 | 46.46256 | 20.45725 | 28812 ft | 355 kts | 42° |
| 2026-05-01 11:14 | 46.48144 | 20.48040 | 29220 ft | 356 kts | 42° |
| 2026-05-01 11:14 | 46.50037 | 20.50361 | 29616 ft | 358 kts | 42° |
| 2026-05-01 11:14 | 46.51941 | 20.52699 | 30006 ft | 359 kts | 42° |
| 2026-05-01 11:14 | 46.53853 | 20.55050 | 30401 ft | 361 kts | 42° |
| 2026-05-01 11:15 | 46.55773 | 20.57412 | 30680 ft | 363 kts | 42° |
| 2026-05-01 11:15 | 46.57708 | 20.59795 | 30898 ft | 366 kts | 41° |
| 2026-05-01 11:15 | 46.59656 | 20.62197 | 31150 ft | 369 kts | 41° |
| 2026-05-01 11:15 | 46.61624 | 20.64624 | 31401 ft | 373 kts | 41° |
| 2026-05-01 11:16 | 46.63613 | 20.67073 | 31634 ft | 376 kts | 41° |
| 2026-05-01 11:16 | 46.65614 | 20.69543 | 31876 ft | 378 kts | 41° |
| 2026-05-01 11:16 | 46.67627 | 20.72034 | 32080 ft | 381 kts | 41° |
| 2026-05-01 11:16 | 46.69656 | 20.74548 | 32302 ft | 384 kts | 41° |
| 2026-05-01 11:17 | 46.71697 | 20.77079 | 32564 ft | 386 kts | 41° |
| 2026-05-01 11:17 | 46.73743 | 20.79620 | 32854 ft | 387 kts | 41° |
| 2026-05-01 11:17 | 46.75787 | 20.82160 | 33254 ft | 385 kts | 41° |
| 2026-05-01 11:17 | 46.77826 | 20.84695 | 33563 ft | 386 kts | 41° |
| 2026-05-01 11:18 | 46.79873 | 20.87244 | 33828 ft | 387 kts | 41° |
| 2026-05-01 11:18 | 46.81917 | 20.89793 | 34118 ft | 388 kts | 41° |
| 2026-05-01 11:18 | 46.83972 | 20.92357 | 34403 ft | 388 kts | 41° |
| 2026-05-01 11:18 | 46.86022 | 20.94918 | 34590 ft | 389 kts | 41° |
| 2026-05-01 11:19 | 46.88089 | 20.97503 | 34790 ft | 391 kts | 41° |
| 2026-05-01 11:19 | 46.90158 | 21.00093 | 34986 ft | 393 kts | 41° |
| 2026-05-01 11:19 | 46.92235 | 21.02696 | 35178 ft | 394 kts | 41° |
| 2026-05-01 11:19 | 46.94320 | 21.05311 | 35379 ft | 396 kts | 41° |
| 2026-05-01 11:20 | 46.96417 | 21.07945 | 35558 ft | 397 kts | 41° |
| 2026-05-01 11:20 | 46.98515 | 21.10583 | 35756 ft | 399 kts | 41° |
| 2026-05-01 11:20 | 47.00621 | 21.13233 | 35929 ft | 400 kts | 41° |
| 2026-05-01 11:20 | 47.02739 | 21.15902 | 36114 ft | 402 kts | 41° |
| 2026-05-01 11:21 | 47.04858 | 21.18575 | 36297 ft | 403 kts | 41° |
| 2026-05-01 11:21 | 47.06991 | 21.21268 | 36468 ft | 405 kts | 40° |
| 2026-05-01 11:21 | 47.09128 | 21.23968 | 36661 ft | 405 kts | 40° |
| 2026-05-01 11:21 | 47.11249 | 21.26652 | 37073 ft | 401 kts | 40° |
| 2026-05-01 11:22 | 47.13364 | 21.29331 | 37252 ft | 403 kts | 40° |
| 2026-05-01 11:22 | 47.15489 | 21.32026 | 37361 ft | 405 kts | 40° |
| 2026-05-01 11:22 | 47.16908 | 21.33827 | 37476 ft | 406 kts | 40° |
| 2026-05-01 11:22 | 47.19049 | 21.36547 | 37635 ft | 408 kts | 40° |
| 2026-05-01 11:23 | 47.21198 | 21.39281 | 37785 ft | 409 kts | 40° |
| 2026-05-01 11:23 | 47.23355 | 21.42027 | 37936 ft | 411 kts | 40° |
| 2026-05-01 11:23 | 47.25517 | 21.44783 | 38081 ft | 412 kts | 40° |
| 2026-05-01 11:23 | 47.27689 | 21.47554 | 38270 ft | 413 kts | 40° |
| 2026-05-01 11:24 | 47.29860 | 21.50328 | 38447 ft | 414 kts | 40° |
| 2026-05-01 11:24 | 47.32037 | 21.53112 | 38589 ft | 415 kts | 40° |
| 2026-05-01 11:24 | 47.36411 | 21.58717 | 38882 ft | 418 kts | 40° |
| 2026-05-01 11:25 | 47.38609 | 21.61537 | 39042 ft | 419 kts | 40° |
| 2026-05-01 11:25 | 47.43016 | 21.67203 | 39288 ft | 421 kts | 40° |
| 2026-05-01 11:25 | 47.45229 | 21.70054 | 39343 ft | 423 kts | 40° |
| 2026-05-01 11:26 | 47.51813 | 21.78555 | 39323 ft | 416 kts | 40° |
| 2026-05-01 11:26 | 47.53986 | 21.81368 | 39130 ft | 416 kts | 40° |
| 2026-05-01 11:27 | 47.56173 | 21.84200 | 38878 ft | 419 kts | 40° |
| 2026-05-01 11:27 | 47.58368 | 21.87046 | 38595 ft | 419 kts | 40° |
| 2026-05-01 11:27 | 47.60555 | 21.89885 | 38316 ft | 418 kts | 40° |
| 2026-05-01 11:27 | 47.62731 | 21.92714 | 38043 ft | 415 kts | 40° |
| 2026-05-01 11:28 | 47.64892 | 21.95527 | 37781 ft | 411 kts | 40° |
| 2026-05-01 11:28 | 47.67038 | 21.98323 | 37527 ft | 408 kts | 41° |
| 2026-05-01 11:28 | 47.69160 | 22.01091 | 37254 ft | 405 kts | 41° |
| 2026-05-01 11:29 | 47.73364 | 22.06583 | 36722 ft | 400 kts | 41° |
| 2026-05-01 11:29 | 47.75448 | 22.09311 | 36470 ft | 398 kts | 41° |
| 2026-05-01 11:29 | 47.79569 | 22.14713 | 35948 ft | 393 kts | 41° |
| 2026-05-01 11:30 | 47.81613 | 22.17397 | 35727 ft | 390 kts | 41° |
| 2026-05-01 11:30 | 47.83632 | 22.20051 | 35476 ft | 386 kts | 41° |
| 2026-05-01 11:30 | 47.85635 | 22.22688 | 35118 ft | 383 kts | 41° |
| 2026-05-01 11:30 | 47.87626 | 22.25310 | 34559 ft | 382 kts | 41° |
| 2026-05-01 11:31 | 47.89619 | 22.27939 | 33962 ft | 381 kts | 41° |
| 2026-05-01 11:31 | 47.91602 | 22.30557 | 33265 ft | 381 kts | 41° |
| 2026-05-01 11:31 | 47.93584 | 22.33176 | 32605 ft | 381 kts | 41° |
| 2026-05-01 11:31 | 47.95569 | 22.35803 | 31928 ft | 380 kts | 41° |
| 2026-05-01 11:32 | 47.97537 | 22.38411 | 31447 ft | 376 kts | 41° |
| 2026-05-01 11:32 | 47.99452 | 22.40949 | 31034 ft | 370 kts | 41° |
| 2026-05-01 11:32 | 48.01366 | 22.43489 | 30583 ft | 366 kts | 41° |
| 2026-05-01 11:32 | 48.03256 | 22.45999 | 30123 ft | 361 kts | 41° |
| 2026-05-01 11:33 | 48.05118 | 22.48476 | 29671 ft | 356 kts | 41° |
| 2026-05-01 11:33 | 48.06978 | 22.50952 | 29229 ft | 351 kts | 41° |
| 2026-05-01 11:33 | 48.08787 | 22.53362 | 28799 ft | 346 kts | 41° |
| 2026-05-01 11:33 | 48.10568 | 22.55738 | 28359 ft | 342 kts | 41° |
| 2026-05-01 11:34 | 48.12332 | 22.58094 | 27933 ft | 337 kts | 41° |
| 2026-05-01 11:34 | 48.14070 | 22.60426 | 27524 ft | 333 kts | 42° |
| 2026-05-01 11:34 | 48.15729 | 22.62813 | 27108 ft | 330 kts | 44° |
| 2026-05-01 11:34 | 48.17351 | 22.65218 | 26703 ft | 327 kts | 44° |
| 2026-05-01 11:35 | 48.18944 | 22.67572 | 26274 ft | 324 kts | 44° |
| 2026-05-01 11:35 | 48.20568 | 22.69963 | 25846 ft | 322 kts | 44° |
| 2026-05-01 11:35 | 48.22163 | 22.72304 | 25428 ft | 320 kts | 44° |
| 2026-05-01 11:35 | 48.23755 | 22.74639 | 25002 ft | 319 kts | 44° |
| 2026-05-01 11:36 | 48.25335 | 22.76957 | 24591 ft | 317 kts | 44° |
| 2026-05-01 11:36 | 48.26911 | 22.79268 | 24169 ft | 317 kts | 44° |
| 2026-05-01 11:36 | 48.28481 | 22.81574 | 23727 ft | 316 kts | 44° |
| 2026-05-01 11:36 | 48.30048 | 22.83875 | 23279 ft | 314 kts | 44° |
| 2026-05-01 11:37 | 48.31604 | 22.86165 | 22859 ft | 313 kts | 43° |
| 2026-05-01 11:37 | 48.33137 | 22.88420 | 22457 ft | 312 kts | 43° |
| 2026-05-01 11:37 | 48.34682 | 22.90696 | 22030 ft | 311 kts | 43° |
| 2026-05-01 11:37 | 48.36222 | 22.92966 | 21630 ft | 309 kts | 43° |
| 2026-05-01 11:38 | 48.37751 | 22.95222 | 21233 ft | 308 kts | 43° |
| 2026-05-01 11:38 | 48.39281 | 22.97482 | 20818 ft | 307 kts | 43° |
| 2026-05-01 11:38 | 48.40822 | 22.99759 | 20410 ft | 306 kts | 43° |
| 2026-05-01 11:38 | 48.42318 | 23.01972 | 19995 ft | 305 kts | 43° |
| 2026-05-01 11:39 | 48.43826 | 23.04206 | 19588 ft | 304 kts | 43° |
| 2026-05-01 11:39 | 48.45330 | 23.06434 | 19188 ft | 303 kts | 43° |
| 2026-05-01 11:39 | 48.46835 | 23.08665 | 18780 ft | 303 kts | 42° |
| 2026-05-01 11:39 | 48.48339 | 23.10897 | 18343 ft | 303 kts | 42° |
| 2026-05-01 11:40 | 48.49838 | 23.13125 | 17925 ft | 302 kts | 43° |
| 2026-05-01 11:40 | 48.51330 | 23.15343 | 17515 ft | 301 kts | 43° |
| 2026-05-01 11:40 | 48.52782 | 23.17604 | 17104 ft | 300 kts | 47° |
| 2026-05-01 11:40 | 48.53942 | 23.20231 | 16705 ft | 304 kts | 60° |
| 2026-05-01 11:41 | 48.54749 | 23.23193 | 16284 ft | 306 kts | 65° |
| 2026-05-01 11:41 | 48.55465 | 23.26215 | 15885 ft | 305 kts | 66° |
| 2026-05-01 11:41 | 48.56174 | 23.29245 | 15384 ft | 308 kts | 66° |
| 2026-05-01 11:41 | 48.56906 | 23.32338 | 14563 ft | 319 kts | 66° |
| 2026-05-01 11:42 | 48.57670 | 23.35558 | 13747 ft | 330 kts | 67° |
| 2026-05-01 11:42 | 48.58447 | 23.38839 | 13090 ft | 333 kts | 67° |
| 2026-05-01 11:42 | 48.59223 | 23.42128 | 12586 ft | 331 kts | 68° |
| 2026-05-01 11:42 | 48.59993 | 23.45391 | 12119 ft | 329 kts | 68° |
| 2026-05-01 11:43 | 48.60756 | 23.48632 | 11725 ft | 325 kts | 68° |
| 2026-05-01 11:43 | 48.61501 | 23.51796 | 11597 ft | 313 kts | 68° |
| 2026-05-01 11:43 | 48.62216 | 23.54839 | 11490 ft | 302 kts | 68° |
| 2026-05-01 11:44 | 48.63581 | 23.60656 | 11248 ft | 282 kts | 68° |
| 2026-05-01 11:44 | 48.64222 | 23.63387 | 11089 ft | 277 kts | 68° |
| 2026-05-01 11:44 | 48.64863 | 23.66114 | 10839 ft | 275 kts | 68° |
| 2026-05-01 11:44 | 48.65499 | 23.68837 | 10535 ft | 274 kts | 68° |
| 2026-05-01 11:45 | 48.66134 | 23.71550 | 10237 ft | 274 kts | 68° |
| 2026-05-01 11:45 | 48.66768 | 23.74261 | 9934 ft | 273 kts | 68° |
| 2026-05-01 11:45 | 48.67399 | 23.76968 | 9563 ft | 273 kts | 68° |
| 2026-05-01 11:45 | 48.68030 | 23.79672 | 9230 ft | 272 kts | 68° |
| 2026-05-01 11:46 | 48.68657 | 23.82368 | 8891 ft | 271 kts | 69° |
| 2026-05-01 11:46 | 48.69282 | 23.85053 | 8551 ft | 270 kts | 68° |
| 2026-05-01 11:46 | 48.69902 | 23.87729 | 8278 ft | 268 kts | 69° |
| 2026-05-01 11:46 | 48.70514 | 23.90377 | 8222 ft | 268 kts | 69° |
| 2026-05-01 11:47 | 48.71134 | 23.93051 | 8223 ft | 269 kts | 69° |
| 2026-05-01 11:47 | 48.71747 | 23.95709 | 8106 ft | 266 kts | 68° |
| 2026-05-01 11:47 | 48.72360 | 23.98357 | 7956 ft | 267 kts | 69° |
| 2026-05-01 11:47 | 48.72973 | 24.01016 | 7800 ft | 268 kts | 69° |
| 2026-05-01 11:48 | 48.73584 | 24.03676 | 7640 ft | 267 kts | 68° |
| 2026-05-01 11:48 | 48.74205 | 24.06375 | 7490 ft | 267 kts | 69° |
| 2026-05-01 11:48 | 48.74816 | 24.09033 | 7350 ft | 268 kts | 69° |
| 2026-05-01 11:48 | 48.75419 | 24.11657 | 7216 ft | 267 kts | 68° |
| 2026-05-01 11:49 | 48.76036 | 24.14354 | 7107 ft | 267 kts | 68° |
| 2026-05-01 11:49 | 48.76639 | 24.17009 | 6966 ft | 266 kts | 68° |
| 2026-05-01 11:49 | 48.77236 | 24.19623 | 6855 ft | 265 kts | 68° |
| 2026-05-01 11:49 | 48.77841 | 24.22272 | 6733 ft | 258 kts | 68° |
| 2026-05-01 11:50 | 48.78418 | 24.24803 | 6601 ft | 250 kts | 68° |
| 2026-05-01 11:50 | 48.78971 | 24.27232 | 6483 ft | 243 kts | 68° |
| 2026-05-01 11:50 | 48.79514 | 24.29615 | 6371 ft | 236 kts | 67° |
| 2026-05-01 11:50 | 48.80044 | 24.31949 | 6248 ft | 232 kts | 68° |
| 2026-05-01 11:51 | 48.80567 | 24.34246 | 6120 ft | 230 kts | 68° |
| 2026-05-01 11:51 | 48.81097 | 24.36570 | 5988 ft | 230 kts | 67° |
| 2026-05-01 11:51 | 48.81615 | 24.38845 | 5886 ft | 231 kts | 68° |
| 2026-05-01 11:51 | 48.82232 | 24.41075 | 5771 ft | 228 kts | 53° |
| 2026-05-01 11:52 | 48.83298 | 24.42816 | 5683 ft | 225 kts | 38° |
| 2026-05-01 11:52 | 48.84509 | 24.44308 | 5574 ft | 224 kts | 33° |
| 2026-05-01 11:52 | 48.85782 | 24.45729 | 5473 ft | 224 kts | 33° |
| 2026-05-01 11:52 | 48.87050 | 24.47116 | 5378 ft | 225 kts | 32° |
| 2026-05-01 11:53 | 48.88320 | 24.48503 | 5227 ft | 226 kts | 33° |
| 2026-05-01 11:53 | 48.89530 | 24.50014 | 5072 ft | 224 kts | 44° |
| 2026-05-01 11:53 | 48.90281 | 24.52020 | 5067 ft | 217 kts | 72° |
| 2026-05-01 11:53 | 48.90428 | 24.54307 | 4764 ft | 220 kts | 90° |
| 2026-05-01 11:54 | 48.90263 | 24.56661 | 4110 ft | 229 kts | 96° |
| 2026-05-01 11:54 | 48.89974 | 24.59082 | 3253 ft | 235 kts | 100° |
| 2026-05-01 11:54 | 48.89569 | 24.61444 | 2691 ft | 226 kts | 103° |
| 2026-05-01 11:54 | 48.89159 | 24.63647 | 2496 ft | 205 kts | 102° |
| 2026-05-01 11:55 | 48.88839 | 24.65686 | 2345 ft | 196 kts | 102° |
| 2026-05-01 11:55 | 48.88388 | 24.67790 | 2261 ft | 236 kts | 108° |
| 2026-05-01 11:55 | 48.87709 | 24.70347 | 2218 ft | 281 kts | 112° |
| 2026-05-01 11:55 | 48.86843 | 24.73095 | 2648 ft | 288 kts | 115° |
| 2026-05-01 11:56 | 48.86017 | 24.75658 | 3254 ft | 252 kts | 112° |
| 2026-05-01 11:56 | 48.85465 | 24.77998 | 3559 ft | 232 kts | 104° |
| 2026-05-01 11:56 | 48.85017 | 24.80362 | 3396 ft | 229 kts | 103° |
| 2026-05-01 11:56 | 48.84586 | 24.82719 | 3088 ft | 234 kts | 103° |
| 2026-05-01 11:57 | 48.84150 | 24.85091 | 3010 ft | 234 kts | 103° |
| 2026-05-01 11:57 | 48.83865 | 24.86665 | 3009 ft | 234 kts | 103° |
| 2026-05-01 11:57 | 48.83455 | 24.89865 | 2995 ft | 229 kts | 83° |
| 2026-05-01 11:57 | 48.83966 | 24.92083 | 3013 ft | 220 kts | 49° |
| 2026-05-01 11:58 | 48.85136 | 24.93446 | 3002 ft | 212 kts | 16° |
| 2026-05-01 11:58 | 48.86573 | 24.93545 | 3006 ft | 207 kts | 342° |
| 2026-05-01 11:58 | 48.88532 | 24.90547 | 3011 ft | 210 kts | 299° |
| 2026-05-01 11:59 | 48.89207 | 24.88571 | 3008 ft | 212 kts | 298° |
| 2026-05-01 11:59 | 48.89889 | 24.86549 | 3011 ft | 212 kts | 298° |
| 2026-05-01 11:59 | 48.90543 | 24.84577 | 3003 ft | 212 kts | 298° |
| 2026-05-01 12:00 | 48.91889 | 24.80570 | 3005 ft | 212 kts | 298° |
| 2026-05-01 12:00 | 48.92670 | 24.78667 | 3012 ft | 212 kts | 309° |
| 2026-05-01 12:00 | 48.94580 | 24.75304 | 3017 ft | 211 kts | 312° |
| 2026-05-01 12:01 | 48.95552 | 24.73651 | 3011 ft | 208 kts | 312° |
| 2026-05-01 12:01 | 48.96528 | 24.71987 | 3023 ft | 209 kts | 312° |
| 2026-05-01 12:01 | 48.97486 | 24.70345 | 3014 ft | 207 kts | 311° |
| 2026-05-01 12:01 | 48.98448 | 24.68700 | 3019 ft | 209 kts | 312° |
| 2026-05-01 12:02 | 48.99396 | 24.67058 | 3015 ft | 210 kts | 311° |
| 2026-05-01 12:02 | 49.00359 | 24.65391 | 3014 ft | 208 kts | 312° |
| 2026-05-01 12:02 | 49.01324 | 24.63740 | 3020 ft | 209 kts | 312° |
| 2026-05-01 12:02 | 49.02280 | 24.62095 | 3014 ft | 207 kts | 312° |
| 2026-05-01 12:03 | 49.03228 | 24.60438 | 3017 ft | 207 kts | 312° |
| 2026-05-01 12:03 | 49.04171 | 24.58785 | 3019 ft | 207 kts | 312° |
| 2026-05-01 12:03 | 49.05114 | 24.57133 | 3010 ft | 206 kts | 311° |
| 2026-05-01 12:03 | 49.06061 | 24.55482 | 3018 ft | 207 kts | 312° |
| 2026-05-01 12:04 | 49.07013 | 24.53822 | 3017 ft | 209 kts | 312° |
| 2026-05-01 12:04 | 49.07652 | 24.52681 | 3009 ft | 209 kts | 309° |
| 2026-05-01 12:04 | 49.08385 | 24.50759 | 3017 ft | 212 kts | 291° |
| 2026-05-01 12:04 | 49.08587 | 24.48526 | 3017 ft | 216 kts | 266° |
| 2026-05-01 12:05 | 49.08012 | 24.46418 | 3011 ft | 221 kts | 233° |
| 2026-05-01 12:05 | 49.05154 | 24.45208 | 3013 ft | 232 kts | 158° |
| 2026-05-01 12:05 | 49.03805 | 24.46547 | 3020 ft | 233 kts | 141° |
| 2026-05-01 12:06 | 49.02415 | 24.47821 | 3017 ft | 234 kts | 159° |
| 2026-05-01 12:06 | 49.00872 | 24.48590 | 3013 ft | 234 kts | 166° |
| 2026-05-01 12:06 | 48.99295 | 24.49219 | 3008 ft | 234 kts | 167° |
| 2026-05-01 12:06 | 48.97723 | 24.49825 | 3007 ft | 232 kts | 167° |
| 2026-05-01 12:07 | 48.96150 | 24.50426 | 3020 ft | 233 kts | 168° |
| 2026-05-01 12:07 | 48.94573 | 24.51001 | 3011 ft | 233 kts | 168° |
| 2026-05-01 12:07 | 48.92991 | 24.51575 | 3018 ft | 233 kts | 168° |
| 2026-05-01 12:07 | 48.91424 | 24.52188 | 3024 ft | 232 kts | 161° |
| 2026-05-01 12:08 | 48.90024 | 24.53373 | 3102 ft | 230 kts | 139° |
| 2026-05-01 12:08 | 48.89075 | 24.55234 | 3153 ft | 217 kts | 111° |
| 2026-05-01 12:08 | 48.88864 | 24.57345 | 3196 ft | 191 kts | 86° |
| 2026-05-01 12:08 | 48.88968 | 24.59308 | 2856 ft | 185 kts | 81° |
| 2026-05-01 12:09 | 48.89104 | 24.61263 | 2356 ft | 187 kts | 81° |
| 2026-05-01 12:09 | 48.89113 | 24.63254 | 1860 ft | 190 kts | 90° |
| 2026-05-01 12:09 | 48.88912 | 24.65244 | 1337 ft | 191 kts | 102° |
| 2026-05-01 12:09 | 48.88594 | 24.67171 | 965 ft | 183 kts | 101° |
| 2026-05-01 12:10 | 48.88325 | 24.68831 | 927 ft | 122 kts | 103° |
| 2026-05-01 12:10 | 48.88131 | 24.70033 | 920 ft | 11 kts | 92° |
| 2026-05-01 12:10 | 48.88172 | 24.70120 | 919 ft | 11 kts | 35° |
| 2026-05-01 12:11 | 48.88323 | 24.70273 | 918 ft | 12 kts | 33° |
| 2026-05-01 12:11 | 48.88364 | 24.70313 | 918 ft | 7 kts | 33° |
| 2026-05-01 12:11 | 48.88412 | 24.70355 | 918 ft | 8 kts | 17° |
| 2026-05-01 12:12 | 48.88472 | 24.70348 | 918 ft | 9 kts | 350° |
| 2026-05-01 12:12 | 48.88535 | 24.70322 | 918 ft | 10 kts | 341° |
| 2026-05-01 12:12 | 48.88601 | 24.70288 | 918 ft | 10 kts | 341° |
| 2026-05-01 12:12 | 48.88658 | 24.70270 | 919 ft | 7 kts | 4° |
| 2026-05-01 12:13 | 48.88692 | 24.70321 | 919 ft | 8 kts | 65° |
| 2026-05-01 12:13 | 48.88708 | 24.70408 | 918 ft | 10 kts | 78° |
| 2026-05-01 12:13 | 48.88720 | 24.70517 | 918 ft | 8 kts | 80° |
| 2026-05-01 12:13 | 48.88721 | 24.70527 | 918 ft | 0 kts | 80° |
| 2026-05-01 12:18 | 48.88680 | 24.70597 | 917 ft | 0 kts | 171° |